Cedar Hills, Utah
Current Conditions -  °F | °C
As of 5:48 PM on Wednesday 22 Oct 2014 (Local Time) from KPVU Reporting Station
Few Clouds Few Clouds  
Wind Chill: 61°   Ceiling: Unl
Heat Index: 61°   Visibility: 10mi
Dew Point: 37°   Wind: 5mph
Humidity: 42%   Direction: NA
Pressure: 30.15"   Gusts: NA
Location:  40.3798°N, 111.741°W
Report Text: KPVU 222348Z VRB04KT 10SM FEW120 16/03 A3015
Loading
Personal Weather Stations






























Interactive Weather Map
Tropical Storm Tracking
New forecast layout! Learn more

10-Day Weather Forecast

Advertisements
Track Severe Weather on mobile